Time;durP1;ratioP1;P1;durP2;ratioP2;P2;SDS_P1;SDS_P2;PMS_P1;PMS_P2;Temp;Humidity;BMP_temperature;BMP_pressure;BME280_temperature;BME280_humidity;BME280_pressure;Samples;Min_cycle;Max_cycle;Signal;HPM_P1;HPM_P2
2022/05/11 00:01:58;;;;;;;18.90;6.50;;;;;;;8.79;39.92;99210.89;105535;1283;97933;-66
2022/05/11 00:04:27;;;;;;;18.80;7.20;;;;;;;8.78;39.81;99209.51;105496;1283;108607;-67
2022/05/11 00:06:55;;;;;;;19.80;7.10;;;;;;;8.75;39.66;99207.44;105464;1283;97005;-66
2022/05/11 00:09:24;;;;;;;16.80;6.80;;;;;;;8.74;40.10;99204.48;105465;1283;97909;-65
2022/05/11 00:11:53;;;;;;;19.30;6.40;;;;;;;8.76;39.90;99198.00;105541;1283;111320;-66
2022/05/11 00:14:22;;;;;;;19.50;6.30;;;;;;;8.77;39.92;99195.41;105560;1283;97959;-66
2022/05/11 00:16:51;;;;;;;22.60;6.60;;;;;;;8.78;40.13;99194.48;105554;1283;108324;-67
2022/05/11 00:19:21;;;;;;;18.70;6.90;;;;;;;8.78;40.25;99192.38;105512;1283;97986;-65
2022/05/11 00:21:49;;;;;;;18.70;6.30;;;;;;;8.77;40.31;99188.17;105591;1283;95213;-65
2022/05/11 00:24:19;;;;;;;20.00;6.80;;;;;;;8.77;40.43;99186.59;105503;1284;112424;-67
2022/05/11 00:26:47;;;;;;;21.80;6.50;;;;;;;8.77;40.44;99181.69;105566;1283;97921;-66
2022/05/11 00:29:16;;;;;;;17.60;6.70;;;;;;;8.76;40.40;99182.63;105487;1283;108176;-66
2022/05/11 00:31:44;;;;;;;22.40;5.70;;;;;;;8.79;40.65;99180.79;105475;1283;97963;-67
2022/05/11 00:34:14;;;;;;;17.30;5.40;;;;;;;8.85;40.78;99180.44;105562;1283;98410;-67
2022/05/11 00:36:42;;;;;;;17.70;5.90;;;;;;;8.89;40.74;99183.92;105633;1283;112048;-68
2022/05/11 00:39:12;;;;;;;15.40;5.70;;;;;;;8.92;40.56;99181.27;105619;1283;95291;-68
2022/05/11 00:41:42;;;;;;;16.00;5.70;;;;;;;8.95;40.89;99180.52;105459;1283;108542;-67
2022/05/11 00:44:12;;;;;;;17.10;5.80;;;;;;;8.97;40.79;99176.87;105443;1283;98072;-66
2022/05/11 00:46:59;;;;;;;20.80;7.40;;;;;;;8.97;40.83;99171.92;105467;1283;95418;-66
2022/05/11 00:49:38;;;;;;;15.50;5.60;;;;;;;8.98;40.99;99170.96;105454;1283;112469;-67
2022/05/11 00:52:34;;;;;;;14.30;6.20;;;;;;;8.97;40.95;99165.89;105500;1283;95236;-66
2022/05/11 00:55:09;;;;;;;19.50;6.60;;;;;;;8.94;41.23;99164.64;104844;1284;108390;-67
2022/05/11 00:57:51;;;;;;;23.00;6.90;;;;;;;8.91;41.14;99159.50;105472;1283;97985;-66
2022/05/11 01:00:21;;;;;;;19.50;5.80;;;;;;;8.93;41.27;99159.58;105360;1284;98319;-66
2022/05/11 01:02:58;;;;;;;16.80;5.40;;;;;;;8.94;41.30;99154.76;105488;1283;111615;-66
2022/05/11 01:05:27;;;;;;;19.30;6.20;;;;;;;8.95;41.56;99154.86;105407;1283;97913;-67
2022/05/11 01:07:57;;;;;;;14.10;5.30;;;;;;;8.97;41.26;99154.42;105406;1283;108462;-67
2022/05/11 01:10:32;;;;;;;17.10;5.40;;;;;;;9.00;41.42;99153.14;105426;1283;98085;-68
2022/05/11 01:13:06;;;;;;;17.50;5.80;;;;;;;9.03;41.59;99155.05;105438;1283;97903;-70
2022/05/11 01:15:37;;;;;;;16.20;5.70;;;;;;;9.06;41.46;99155.75;105406;1283;111972;-67
2022/05/11 01:18:08;;;;;;;17.50;6.90;;;;;;;9.08;41.58;99149.12;105206;1284;98056;-67
2022/05/11 01:20:38;;;;;;;17.60;5.30;;;;;;;9.08;41.61;99150.33;105406;1284;108752;-66
2022/05/11 01:23:52;;;;;;;19.90;6.40;;;;;;;9.04;41.49;99151.48;105394;1283;97979;-66
2022/05/11 01:26:21;;;;;;;20.50;6.10;;;;;;;8.91;41.42;99147.73;105087;1284;97913;-66
2022/05/11 01:28:54;;;;;;;18.90;6.30;;;;;;;8.79;41.33;99147.73;105442;1283;111800;-67
2022/05/11 01:31:23;;;;;;;15.30;5.40;;;;;;;8.67;41.46;99142.01;105477;1282;97961;-67
2022/05/11 01:33:52;;;;;;;16.90;6.40;;;;;;;8.54;41.68;99139.42;105365;1283;108332;-67
2022/05/11 01:36:30;;;;;;;16.50;6.30;;;;;;;8.50;41.94;99135.99;105543;1283;95218;-66
2022/05/11 01:39:05;;;;;;;17.30;6.70;;;;;;;8.49;42.24;99133.36;105438;1284;98651;-64
2022/05/11 01:41:38;;;;;;;14.00;5.30;;;;;;;8.50;42.40;99125.56;105433;1283;111405;-66
2022/05/11 01:44:19;;;;;;;17.40;6.30;;;;;;;8.53;42.53;99119.36;105445;1283;97768;-68
2022/05/11 01:46:52;;;;;;;14.00;5.60;;;;;;;8.57;42.64;99115.02;105398;1282;107756;-66
2022/05/11 01:49:22;;;;;;;16.60;6.60;;;;;;;8.60;42.70;99112.73;105420;1283;97986;-66
2022/05/11 01:51:51;;;;;;;15.60;5.60;;;;;;;8.62;42.80;99113.46;105418;1283;97065;-67
2022/05/11 01:54:21;;;;;;;19.10;6.00;;;;;;;8.66;42.71;99110.60;105398;1283;112021;-66
2022/05/11 01:56:51;;;;;;;16.50;5.70;;;;;;;8.71;42.75;99116.08;105437;1283;98472;-67
2022/05/11 01:59:20;;;;;;;14.40;5.50;;;;;;;8.75;42.89;99117.98;105363;1283;108921;-66
2022/05/11 02:01:49;;;;;;;14.90;5.60;;;;;;;8.80;42.79;99114.46;105401;1283;98545;-67
2022/05/11 02:09:53;;;;;;;19.20;6.50;;;;;;;8.88;42.85;99117.15;105429;1283;97890;-66
2022/05/11 02:12:22;;;;;;;15.00;5.60;;;;;;;8.88;42.86;99118.00;105382;1283;108491;-66
2022/05/11 02:14:51;;;;;;;14.60;6.10;;;;;;;8.89;42.52;99121.85;105402;1283;96406;-66
2022/05/11 02:17:20;;;;;;;13.30;6.20;;;;;;;8.84;42.42;99122.15;105420;1283;97893;-66
2022/05/11 02:19:49;;;;;;;17.30;6.40;;;;;;;8.77;42.85;99122.94;105427;1283;112178;-66
2022/05/11 02:22:17;;;;;;;19.30;6.90;;;;;;;8.73;43.07;99120.42;105438;1283;97932;-66
2022/05/11 02:24:45;;;;;;;17.20;6.20;;;;;;;8.68;43.21;99115.38;105486;1283;108497;-66
2022/05/11 02:27:16;;;;;;;17.90;6.40;;;;;;;8.63;43.33;99110.92;105438;1283;98004;-66
2022/05/11 02:29:44;;;;;;;16.00;5.60;;;;;;;8.62;43.47;99110.26;105573;1283;98487;-66
2022/05/11 02:32:12;;;;;;;13.90;5.70;;;;;;;8.65;43.51;99110.48;105461;1283;112003;-64
2022/05/11 02:37:29;;;;;;;15.40;5.80;;;;;;;8.71;43.85;99110.45;105504;1283;108919;-65
2022/05/11 02:39:56;;;;;;;28.10;6.40;;;;;;;8.74;43.61;99107.73;105464;1283;97985;-67
2022/05/11 02:42:24;;;;;;;13.70;5.30;;;;;;;8.77;43.81;99109.67;105510;1283;97824;-68
2022/05/11 02:44:53;;;;;;;16.50;5.00;;;;;;;8.78;43.95;99102.35;105465;1283;111908;-66
2022/05/11 02:47:21;;;;;;;11.90;4.60;;;;;;;8.80;43.83;99100.31;105500;1283;98002;-68
2022/05/11 02:49:51;;;;;;;13.30;4.80;;;;;;;8.83;44.10;99102.96;105526;1283;108111;-67
2022/05/11 02:52:19;;;;;;;13.00;4.70;;;;;;;8.86;44.03;99103.10;105450;1283;97899;-68
2022/05/11 02:54:49;;;;;;;13.20;5.20;;;;;;;8.88;44.03;99102.09;105402;1283;96438;-64
2022/05/11 02:57:18;;;;;;;14.30;5.30;;;;;;;8.88;44.00;99101.77;105438;1283;110581;-64
2022/05/11 02:59:49;;;;;;;17.60;5.30;;;;;;;8.84;43.75;99100.99;105546;1283;96232;-65
2022/05/11 03:02:20;;;;;;;11.60;5.40;;;;;;;8.79;44.06;99097.86;105482;1283;109352;-67
2022/05/11 03:04:50;;;;;;;16.70;5.50;;;;;;;8.79;44.34;99097.90;105376;1282;97974;-68
2022/05/11 03:07:19;;;;;;;14.80;6.00;;;;;;;8.77;44.45;99096.29;105464;1283;98019;-69
2022/05/11 03:09:49;;;;;;;17.50;5.80;;;;;;;8.73;44.71;99096.02;105374;1284;111912;-67
2022/05/11 03:12:22;;;;;;;18.30;5.40;;;;;;;8.70;44.56;99095.29;105511;1283;98015;-65
2022/05/11 03:14:54;;;;;;;17.70;5.80;;;;;;;8.68;44.30;99096.84;105455;1283;107697;-67
2022/05/11 03:17:24;;;;;;;19.10;5.60;;;;;;;8.65;44.37;99093.69;105387;1283;98012;-66
2022/05/11 03:19:53;;;;;;;15.70;5.60;;;;;;;8.63;44.84;99088.48;105414;1282;97974;-65
2022/05/11 03:22:21;;;;;;;15.60;6.00;;;;;;;8.64;44.86;99089.14;105413;1283;111692;-66
2022/05/11 03:24:50;;;;;;;14.40;5.80;;;;;;;8.64;45.06;99086.52;105435;1283;98039;-66
2022/05/11 03:27:19;;;;;;;16.20;6.20;;;;;;;8.61;45.04;99087.02;105449;1282;107770;-66
2022/05/11 03:29:48;;;;;;;17.90;6.20;;;;;;;8.58;45.22;99089.33;105482;1283;96401;-65
2022/05/11 03:35:08;;;;;;;21.20;7.60;;;;;;;8.49;45.56;99092.89;105419;1283;111986;-65
2022/05/11 03:37:38;;;;;;;20.90;7.80;;;;;;;8.46;45.20;99092.91;105439;1283;98124;-65
2022/05/11 03:40:10;;;;;;;19.30;7.70;;;;;;;8.44;45.30;99091.98;105403;1283;109342;-66
2022/05/11 03:42:40;;;;;;;16.80;7.20;;;;;;;8.41;45.58;99090.35;105410;1283;96698;-68
2022/05/11 03:45:11;;;;;;;17.80;7.10;;;;;;;8.43;46.07;99095.18;104655;1282;1092540;-66
2022/05/11 03:47:41;;;;;;;16.70;6.50;;;;;;;8.48;45.68;99092.94;105424;1283;112030;-66
2022/05/11 03:50:10;;;;;;;18.30;6.10;;;;;;;8.54;46.09;99097.55;105283;1283;95312;-65
2022/05/11 03:52:39;;;;;;;17.40;6.10;;;;;;;8.60;45.97;99095.73;105484;1283;108282;-66
2022/05/11 03:55:10;;;;;;;16.30;5.80;;;;;;;8.67;46.35;99098.34;105338;1283;98034;-65
2022/05/11 03:57:39;;;;;;;19.60;6.40;;;;;;;8.71;46.46;99096.10;105529;1283;95285;-67
2022/05/11 04:00:15;;;;;;;15.50;5.90;;;;;;;8.75;46.67;99093.23;105467;1282;112064;-67
2022/05/11 04:02:43;;;;;;;16.80;5.80;;;;;;;8.79;46.57;99093.85;105469;1283;95264;-66
2022/05/11 04:05:14;;;;;;;15.20;6.50;;;;;;;8.82;46.74;99093.85;105562;1283;107516;-65
2022/05/11 04:07:42;;;;;;;17.50;6.50;;;;;;;8.84;46.81;99093.38;105447;1283;97893;-67
2022/05/11 04:10:14;;;;;;;17.30;7.20;;;;;;;8.84;46.92;99091.38;105355;1283;97861;-67
2022/05/11 04:12:42;;;;;;;20.10;7.60;;;;;;;8.86;47.15;99091.30;105506;1283;111410;-65
2022/05/11 04:15:11;;;;;;;16.50;6.90;;;;;;;8.87;47.09;99087.69;105496;1283;98682;-67
2022/05/11 04:17:42;;;;;;;18.10;6.40;;;;;;;8.89;47.08;99087.36;105068;1283;106402;-68
2022/05/11 04:20:15;;;;;;;15.20;6.30;;;;;;;8.92;47.07;99086.06;105310;1283;98741;-68
2022/05/11 04:22:48;;;;;;;15.70;6.40;;;;;;;8.99;47.21;99091.69;105352;1283;96763;-67
2022/05/11 04:25:17;;;;;;;14.20;6.30;;;;;;;9.04;47.72;99091.31;105325;1283;111464;-69
2022/05/11 04:27:50;;;;;;;16.60;6.60;;;;;;;9.10;47.49;99091.32;105391;1283;98457;-67
2022/05/11 04:30:22;;;;;;;22.10;7.40;;;;;;;9.16;47.49;99087.05;105286;1284;108448;-66
2022/05/11 04:32:53;;;;;;;19.00;7.00;;;;;;;9.21;47.44;99085.46;105392;1283;97915;-67
2022/05/11 04:35:23;;;;;;;19.50;7.30;;;;;;;9.27;47.67;99087.34;105406;1283;97911;-69
2022/05/11 04:37:52;;;;;;;17.30;6.60;;;;;;;9.34;47.61;99083.30;105452;1283;112828;-68
2022/05/11 04:40:22;;;;;;;15.50;6.00;;;;;;;9.44;47.60;99082.48;105448;1283;97904;-67
2022/05/11 04:42:52;;;;;;;16.00;6.30;;;;;;;9.55;47.80;99083.17;105403;1283;108663;-66
2022/05/11 04:45:22;;;;;;;14.50;5.80;;;;;;;9.67;47.96;99087.46;105402;1283;98035;-68
2022/05/11 04:47:52;;;;;;;16.90;6.30;;;;;;;9.81;47.83;99092.01;105409;1283;97916;-67
2022/05/11 04:50:20;;;;;;;14.20;5.00;;;;;;;9.95;48.03;99093.40;105402;1283;112115;-66
2022/05/11 04:52:48;;;;;;;13.40;5.20;;;;;;;10.07;48.13;99092.51;105472;1283;97992;-67
2022/05/11 04:55:17;;;;;;;12.90;4.30;;;;;;;10.19;47.90;99088.54;105463;1283;108310;-67
2022/05/11 04:57:45;;;;;;;15.10;5.30;;;;;;;10.31;48.12;99092.14;105349;1283;97989;-68
2022/05/11 05:00:14;;;;;;;13.60;5.10;;;;;;;10.40;48.06;99091.63;105449;1282;97848;-68
2022/05/11 05:02:42;;;;;;;17.50;5.30;;;;;;;10.50;48.10;99090.42;105383;1283;111174;-69
2022/05/11 05:05:12;;;;;;;15.40;5.20;;;;;;;10.60;48.08;99091.64;105389;1283;97880;-66
2022/05/11 05:07:41;;;;;;;16.50;5.80;;;;;;;10.69;48.17;99094.20;105072;1284;107864;-69
2022/05/11 05:10:15;;;;;;;19.60;6.00;;;;;;;10.78;48.36;99089.33;105431;1283;97892;-67
2022/05/11 05:12:44;;;;;;;19.50;5.60;;;;;;;10.85;48.29;99090.90;105573;1283;97881;-69
2022/05/11 05:15:15;;;;;;;14.90;5.40;;;;;;;10.93;48.25;99089.84;105193;1283;111704;-68
2022/05/11 05:17:44;;;;;;;14.70;4.70;;;;;;;11.00;48.32;99093.71;105327;1283;97994;-70
2022/05/11 05:20:14;;;;;;;16.40;5.90;;;;;;;11.07;48.43;99098.52;105434;1283;108300;-68
2022/05/11 05:22:42;;;;;;;16.40;5.40;;;;;;;11.16;48.43;99100.17;105288;1283;98018;-69
2022/05/11 05:25:11;;;;;;;14.10;4.40;;;;;;;11.24;48.35;99104.17;105351;1283;97877;-69
2022/05/11 05:27:40;;;;;;;13.30;5.00;;;;;;;11.33;48.31;99109.73;105470;1283;112045;-69
2022/05/11 05:32:58;;;;;;;16.70;4.70;;;;;;;11.52;48.51;99117.71;105211;1283;108812;-66
2022/05/11 05:35:26;;;;;;;15.20;4.50;;;;;;;11.62;48.42;99110.59;105135;1283;98602;-67
2022/05/11 05:37:56;;;;;;;13.50;5.00;;;;;;;11.71;48.41;99108.31;105323;1283;96401;-69
2022/05/11 05:40:23;;;;;;;15.00;4.90;;;;;;;11.81;48.39;99101.19;105183;1283;112691;-69
2022/05/11 05:42:52;;;;;;;17.20;5.40;;;;;;;11.91;48.54;99102.30;105384;1282;96534;-68
2022/05/11 05:45:21;;;;;;;14.10;4.70;;;;;;;12.01;48.51;99102.52;105386;1283;109305;-69
2022/05/11 05:47:50;;;;;;;15.60;4.90;;;;;;;12.10;48.54;99102.14;105293;1283;96418;-67
2022/05/11 05:50:18;;;;;;;16.00;4.50;;;;;;;12.21;48.61;99098.48;105389;1283;96512;-68
2022/05/11 05:52:49;;;;;;;14.30;4.70;;;;;;;12.31;48.46;99100.32;105416;1283;111620;-68
2022/05/11 05:55:21;;;;;;;15.00;4.60;;;;;;;12.41;48.59;99101.51;105411;1282;97929;-67
2022/05/11 05:57:50;;;;;;;15.60;4.40;;;;;;;12.50;48.52;99100.94;105399;1283;108312;-69
2022/05/11 06:00:27;;;;;;;15.00;4.70;;;;;;;12.61;48.54;99094.77;105444;1283;97893;-68
2022/05/11 06:02:57;;;;;;;12.00;4.10;;;;;;;12.71;48.53;99100.68;105563;1283;97982;-69
2022/05/11 06:05:28;;;;;;;14.70;4.20;;;;;;;12.82;48.62;99100.01;105386;1283;111399;-68
2022/05/11 06:07:59;;;;;;;13.60;4.80;;;;;;;12.93;48.67;99095.92;105375;1284;97918;-69
2022/05/11 06:10:27;;;;;;;10.50;4.40;;;;;;;13.04;48.61;99093.42;105428;1283;108261;-69
2022/05/11 06:12:56;;;;;;;12.90;4.60;;;;;;;13.16;48.57;99096.54;105517;1283;97914;-69
2022/05/11 06:15:26;;;;;;;13.60;4.30;;;;;;;13.26;48.58;99098.88;105493;1283;96672;-69
2022/05/11 06:17:55;;;;;;;14.10;4.20;;;;;;;13.37;48.62;99096.40;105376;1282;112230;-68
2022/05/11 06:20:24;;;;;;;14.10;4.10;;;;;;;13.49;48.68;99095.08;105403;1283;98193;-68
2022/05/11 06:22:53;;;;;;;9.30;4.00;;;;;;;13.60;48.59;99093.95;105494;1283;108321;-68
2022/05/11 06:25:23;;;;;;;14.00;4.00;;;;;;;13.72;48.63;99095.13;105527;1283;97558;-71
2022/05/11 06:27:52;;;;;;;13.70;3.90;;;;;;;13.84;48.61;99096.05;105300;1283;97892;-69
2022/05/11 06:30:20;;;;;;;10.00;3.50;;;;;;;13.96;48.68;99095.52;105613;1282;111372;-65
2022/05/11 06:32:48;;;;;;;14.00;4.70;;;;;;;14.09;48.65;99093.56;105732;1283;97883;-66
2022/05/11 06:35:16;;;;;;;12.90;4.50;;;;;;;14.22;48.67;99094.75;105484;1283;108006;-69
2022/05/11 06:37:46;;;;;;;16.00;4.60;;;;;;;14.35;48.76;99091.68;105539;1283;97983;-69
2022/05/11 06:40:15;;;;;;;11.70;3.80;;;;;;;14.46;48.67;99090.27;105599;1283;97986;-70
2022/05/11 06:42:43;;;;;;;13.20;4.10;;;;;;;14.59;48.66;99092.58;105481;1282;111115;-69
2022/05/11 06:45:13;;;;;;;12.60;4.40;;;;;;;14.72;48.67;99092.71;105535;1283;98006;-68
2022/05/11 06:47:43;;;;;;;14.60;4.00;;;;;;;14.87;48.65;99093.70;105423;1282;108218;-69
2022/05/11 06:50:12;;;;;;;10.80;3.90;;;;;;;15.01;48.62;99086.55;105322;1283;98424;-69
2022/05/11 06:52:40;;;;;;;13.70;3.50;;;;;;;15.16;48.62;99088.56;105470;1283;96518;-70
2022/05/11 07:00:43;;;;;;;14.50;3.90;;;;;;;15.85;48.53;99080.27;105253;1282;107718;-69
2022/05/11 07:03:11;;;;;;;7.90;3.80;;;;;;;17.19;47.43;99078.06;105278;1283;98418;-69
2022/05/11 07:05:43;;;;;;;12.80;3.40;;;;;;;19.08;46.68;99074.21;105235;1282;97977;-69
2022/05/11 07:08:11;;;;;;;9.50;3.50;;;;;;;21.02;46.59;99062.98;105355;1281;111451;-69
2022/05/11 07:12:17;;;;;;;14.00;3.90;;;;;;;22.89;46.15;99064.61;105192;1283;97974;-70
2022/05/11 07:13:30;;;;;;;12.20;3.70;;;;;;;24.94;45.75;99059.95;105226;1282;108301;-68
2022/05/11 07:15:58;;;;;;;10.00;3.20;;;;;;;26.34;45.24;99059.41;105239;1282;95418;-68
2022/05/11 07:18:26;;;;;;;11.40;3.70;;;;;;;27.54;45.23;99062.20;105303;1282;97877;-68
2022/05/11 07:20:54;;;;;;;14.50;3.40;;;;;;;28.60;45.22;99062.08;105395;1281;110986;-68
2022/05/11 07:23:24;;;;;;;10.00;3.50;;;;;;;29.70;44.62;99059.63;105467;1282;95923;-70
2022/05/11 07:25:52;;;;;;;9.40;3.30;;;;;;;30.61;43.97;99056.71;105376;1281;107764;-69
2022/05/11 07:28:21;;;;;;;10.90;3.40;;;;;;;31.34;44.07;99059.89;105282;1282;97432;-68
2022/05/11 07:30:50;;;;;;;6.30;3.00;;;;;;;31.90;43.79;99060.48;105261;1283;98022;-70
2022/05/11 07:33:19;;;;;;;11.10;3.40;;;;;;;32.29;42.87;99060.06;105373;1282;111478;-69
2022/05/11 07:35:47;;;;;;;10.70;3.70;;;;;;;32.79;42.67;99056.88;105256;1283;95948;-72
2022/05/11 07:38:18;;;;;;;8.50;3.60;;;;;;;33.42;42.04;99051.77;105379;1281;107687;-70
2022/05/11 07:40:46;;;;;;;7.80;3.60;;;;;;;33.98;41.68;99046.34;105415;1281;97935;-69
2022/05/11 07:43:15;;;;;;;10.50;3.90;;;;;;;34.61;41.14;99041.63;105184;1282;98499;-69
2022/05/11 07:45:44;;;;;;;9.60;3.40;;;;;;;35.34;40.82;99040.77;105496;1281;111999;-68
2022/05/11 07:48:13;;;;;;;6.40;3.60;;;;;;;35.93;40.29;99044.99;105479;1281;97950;-69
2022/05/11 07:50:41;;;;;;;12.80;3.30;;;;;;;36.09;39.22;99045.52;105429;1281;108405;-70
2022/05/11 07:53:09;;;;;;;14.90;4.20;;;;;;;36.24;38.67;99046.69;105395;1281;98575;-69
2022/05/11 07:55:38;;;;;;;10.00;3.80;;;;;;;36.38;38.35;99040.88;105496;1281;96411;-68
2022/05/11 08:00:52;;;;;;;10.40;3.70;;;;;;;36.84;37.30;99045.48;105377;1281;99140;-70
2022/05/11 08:03:21;;;;;;;10.10;3.60;;;;;;;37.27;36.93;99039.53;105324;1281;107903;-70
2022/05/11 08:05:49;;;;;;;8.90;3.30;;;;;;;37.71;36.44;99036.77;105404;1282;97925;-70
2022/05/11 08:08:17;;;;;;;11.30;3.50;;;;;;;37.78;35.92;99037.86;105330;1283;95408;-67
2022/05/11 08:10:47;;;;;;;8.30;3.90;;;;;;;37.72;35.21;99038.55;105444;1283;111410;-68
2022/05/11 08:13:16;;;;;;;;;;;;;;;37.74;34.86;99032.86;105294;1281;97960;-68
2022/05/11 08:15:49;;;;;;;10.20;3.20;;;;;;;37.81;34.29;99031.79;105497;1281;105981;-69
2022/05/11 08:18:18;;;;;;;8.90;3.40;;;;;;;37.76;33.66;99026.52;105631;1281;97973;-70
2022/05/11 08:20:47;;;;;;;9.40;3.50;;;;;;;37.97;33.69;99030.54;105415;1282;97922;-71
2022/05/11 08:23:15;;;;;;;7.20;3.20;;;;;;;38.13;33.15;99028.40;105472;1283;111409;-70
2022/05/11 08:25:49;;;;;;;9.70;3.50;;;;;;;38.21;33.05;99024.36;105384;1283;97918;-70
2022/05/11 08:28:22;;;;;;;5.30;3.30;;;;;;;38.41;32.34;99023.41;105303;1281;107655;-70
2022/05/11 08:33:41;;;;;;;14.30;4.50;;;;;;;38.78;31.48;99022.67;105369;1283;97891;-71
2022/05/11 08:36:29;;;;;;;16.40;3.90;;;;;;;38.64;31.13;99016.87;105344;1281;111453;-71
2022/05/11 08:39:00;;;;;;;14.60;4.00;;;;;;;38.88;30.57;99019.42;105271;1283;95695;-69
2022/05/11 08:41:38;;;;;;;15.60;4.30;;;;;;;38.90;29.67;99015.80;105043;1283;108257;-70
2022/05/11 08:44:18;;;;;;;12.40;3.60;;;;;;;38.72;29.41;99015.86;105422;1283;97985;-71
2022/05/11 08:47:11;;;;;;;7.90;3.30;;;;;;;38.67;29.15;99014.05;105392;1283;96033;-71
2022/05/11 08:49:46;;;;;;;12.70;3.40;;;;;;;38.69;28.74;99014.75;105475;1282;111411;-72
2022/05/11 08:52:34;;;;;;;10.30;3.60;;;;;;;38.50;28.16;99017.17;105264;1283;98042;-72
2022/05/11 08:55:24;;;;;;;9.20;3.40;;;;;;;37.71;27.58;99014.41;105184;1283;107836;-72
2022/05/11 08:57:54;;;;;;;7.30;3.20;;;;;;;37.62;27.29;99010.34;105436;1282;97915;-73
2022/05/11 09:00:24;;;;;;;10.60;3.40;;;;;;;37.64;27.48;99011.66;105153;1283;97912;-72
2022/05/11 09:03:06;;;;;;;14.10;4.60;;;;;;;37.78;27.42;99013.35;105644;1282;111427;-71
2022/05/11 09:05:35;;;;;;;7.70;3.10;;;;;;;38.06;26.96;99013.00;105602;1283;98402;-70
2022/05/11 09:08:09;;;;;;;7.90;3.30;;;;;;;38.04;26.55;99009.95;105514;1283;107801;-70
2022/05/11 09:10:41;;;;;;;7.60;3.50;;;;;;;37.87;26.32;99006.20;105497;1283;97777;-71
2022/05/11 09:13:13;;;;;;;5.50;3.00;;;;;;;38.18;26.21;99008.91;105558;1282;97745;-69
2022/05/11 09:15:53;;;;;;;13.80;3.60;;;;;;;38.33;26.03;99005.66;105474;1283;111971;-71
2022/05/11 09:18:22;;;;;;;14.30;3.50;;;;;;;38.44;25.71;99007.33;105469;1283;98728;-69
2022/05/11 09:20:55;;;;;;;8.00;3.30;;;;;;;38.27;25.40;99007.96;105419;1283;107830;-68
2022/05/11 09:23:27;;;;;;;8.90;3.20;;;;;;;38.12;25.48;99007.10;105469;1282;97894;-71
2022/05/11 09:26:07;;;;;;;10.10;3.30;;;;;;;38.14;25.28;99000.23;105476;1283;98100;-70
2022/05/11 09:28:38;;;;;;;12.60;3.60;;;;;;;37.98;25.13;99004.82;105640;1283;112164;-68
2022/05/11 09:31:12;;;;;;;7.70;3.30;;;;;;;37.95;24.94;99000.58;105557;1283;98389;-71
2022/05/11 09:33:57;;;;;;;11.10;3.30;;;;;;;38.11;24.95;98999.77;105480;1283;107630;-70
2022/05/11 09:37:20;;;;;;;7.10;3.60;;;;;;;38.10;24.67;99003.39;105535;1283;96753;-69
2022/05/11 09:39:55;;;;;;;12.90;3.80;;;;;;;38.01;24.54;99002.27;105528;1283;97991;-70
2022/05/11 09:42:32;;;;;;;10.00;3.50;;;;;;;38.00;24.57;98999.80;105566;1283;112148;-69
2022/05/11 09:45:03;;;;;;;7.80;3.70;;;;;;;37.86;24.21;98995.50;105471;1285;96284;-70
2022/05/11 09:47:35;;;;;;;9.30;3.00;;;;;;;37.39;23.83;98990.80;105513;1284;109232;-71
2022/05/11 09:50:25;;;;;;;9.30;3.60;;;;;;;37.01;24.13;98991.66;105671;1281;96595;-70
2022/05/11 09:53:10;;;;;;;7.30;3.60;;;;;;;37.13;24.06;98991.45;105714;1283;97911;-69
2022/05/11 09:55:38;;;;;;;12.00;4.00;;;;;;;37.18;24.00;98988.31;105535;1283;111407;-70
2022/05/11 09:58:06;;;;;;;8.30;3.70;;;;;;;37.01;23.99;98987.90;105515;1282;98398;-67
2022/05/11 10:00:42;;;;;;;9.90;3.50;;;;;;;36.57;23.87;98986.34;105639;1283;108676;-72
2022/05/11 10:03:16;;;;;;;8.00;3.60;;;;;;;36.05;23.55;98986.56;105659;1283;97977;-69
2022/05/11 10:05:50;;;;;;;11.90;3.90;;;;;;;35.49;23.48;98988.41;105515;1283;98005;-68
2022/05/11 10:08:29;;;;;;;11.20;5.00;;;;;;;35.07;23.50;98981.84;105781;1283;111032;-71
2022/05/11 10:11:09;;;;;;;9.20;4.20;;;;;;;34.66;23.25;98980.89;105613;1283;97999;-71
2022/05/11 10:13:40;;;;;;;12.40;3.60;;;;;;;34.23;23.42;98976.55;105594;1282;107756;-71
2022/05/11 10:22:11;;;;;;;11.10;3.50;;;;;;;32.85;23.34;98971.19;105493;1283;111391;-68
2022/05/11 10:24:51;;;;;;;13.70;3.40;;;;;;;32.39;23.26;98976.66;105556;1283;98375;-75
2022/05/11 10:27:32;;;;;;;11.20;4.10;;;;;;;32.01;23.30;98972.11;105473;1283;107728;-76
2022/05/11 10:30:25;;;;;;;6.70;3.40;;;;;;;31.68;23.16;98971.16;105568;1282;97928;-75
2022/05/11 10:33:09;;;;;;;7.80;3.70;;;;;;;31.13;22.93;98966.40;105671;1283;95239;-68
2022/05/11 10:35:57;;;;;;;16.10;4.20;;;;;;;30.59;23.22;98972.52;105460;1284;112933;-70
2022/05/11 10:38:45;;;;;;;14.30;3.90;;;;;;;30.32;23.26;98965.36;105509;1283;98500;-67
2022/05/11 10:41:19;;;;;;;10.70;3.60;;;;;;;30.09;23.34;98961.29;105221;1284;107821;-66
2022/05/11 10:44:14;;;;;;;7.20;3.20;;;;;;;29.80;23.29;98965.30;105370;1281;97999;-70
2022/05/11 10:47:13;;;;;;;6.90;3.60;;;;;;;29.55;23.57;98959.98;105381;1284;96504;-68
2022/05/11 10:50:06;;;;;;;13.20;3.30;;;;;;;29.33;23.57;98963.09;105294;1284;111976;-67
2022/05/11 10:53:01;;;;;;;10.80;3.60;;;;;;;29.18;23.69;98958.92;105385;1283;98319;-75
2022/05/11 10:55:59;;;;;;;7.30;3.50;;;;;;;29.00;23.82;98961.87;105473;1283;108086;-67
2022/05/11 10:58:30;;;;;;;9.50;3.90;;;;;;;28.78;23.81;98958.41;105242;1283;98003;-70
2022/05/11 11:01:14;;;;;;;13.90;4.20;;;;;;;28.61;23.65;98957.04;105580;1283;97946;-70
2022/05/11 11:04:13;;;;;;;12.00;3.50;;;;;;;28.47;23.78;98951.14;105626;1282;111496;-71
2022/05/11 11:07:13;;;;;;;9.40;3.80;;;;;;;28.39;23.75;98951.58;105509;1282;98308;-73
2022/05/11 11:09:43;;;;;;;9.00;3.30;;;;;;;28.33;24.06;98946.56;105535;1283;107754;-66
2022/05/11 11:12:49;;;;;;;7.30;3.10;;;;;;;28.24;24.24;98947.77;105581;1283;97762;-66
2022/05/11 11:15:26;;;;;;;10.00;4.10;;;;;;;27.98;24.37;98942.65;105540;1283;98429;-70
2022/05/11 11:17:59;;;;;;;10.70;3.90;;;;;;;27.91;24.74;98942.61;105604;1283;111049;-68
2022/05/11 11:20:32;;;;;;;9.10;3.60;;;;;;;27.81;24.76;98941.34;105595;1283;95601;-65
2022/05/11 11:23:17;;;;;;;8.60;3.90;;;;;;;27.75;24.61;98942.20;105456;1283;107710;-68
2022/05/11 11:25:52;;;;;;;8.30;3.80;;;;;;;27.61;24.53;98948.88;105354;1283;98238;-73
2022/05/11 11:28:25;;;;;;;10.60;3.70;;;;;;;27.55;24.84;98941.03;105515;1283;96338;-74
2022/05/11 11:30:59;;;;;;;10.00;3.90;;;;;;;27.50;25.18;98938.48;105555;1283;112156;-73
2022/05/11 11:33:33;;;;;;;10.70;4.20;;;;;;;27.53;25.06;98938.20;105534;1282;98204;-72
2022/05/11 11:36:28;;;;;;;14.50;4.30;;;;;;;27.54;25.24;98932.55;105421;1282;107633;-67
2022/05/11 11:39:06;;;;;;;9.30;4.00;;;;;;;27.54;25.37;98932.10;105581;1283;96342;-68
2022/05/11 11:42:01;;;;;;;9.60;4.00;;;;;;;27.44;25.27;98930.20;105483;1281;96454;-71
2022/05/11 11:44:40;;;;;;;18.50;5.00;;;;;;;27.39;25.42;98932.43;105106;1282;111486;-71
2022/05/11 11:47:27;;;;;;;11.10;4.10;;;;;;;27.33;25.42;98928.11;105216;1282;98168;-70
2022/05/11 11:49:59;;;;;;;10.40;4.00;;;;;;;27.28;25.79;98925.23;105503;1283;107934;-70
2022/05/11 11:52:38;;;;;;;9.60;4.00;;;;;;;27.28;25.94;98925.51;105489;1281;96096;-72
2022/05/11 11:55:28;;;;;;;10.70;4.30;;;;;;;27.17;25.94;98923.92;105545;1283;97928;-73
2022/05/11 11:58:20;;;;;;;9.10;4.10;;;;;;;27.13;26.09;98919.98;105566;1281;111424;-72
2022/05/11 12:00:48;;;;;;;12.40;4.40;;;;;;;27.13;26.07;98917.96;105230;1284;97961;-73
2022/05/11 12:03:19;;;;;;;9.90;4.20;;;;;;;27.01;26.32;98916.93;105378;1283;107557;-72
2022/05/11 12:05:52;;;;;;;8.40;4.60;;;;;;;26.86;26.24;98912.64;105356;1283;97968;-70
2022/05/11 12:17:04;;;;;;;10.10;4.50;;;;;;;26.62;26.80;98901.02;105422;1282;108415;-69
2022/05/11 12:19:38;;;;;;;8.70;4.40;;;;;;;26.66;26.81;98901.32;105614;1283;97918;-71
2022/05/11 12:22:18;;;;;;;10.00;4.80;;;;;;;26.67;27.00;98895.17;105493;1283;97936;-71
2022/05/11 12:24:57;;;;;;;10.10;3.70;;;;;;;26.69;27.27;98893.83;105505;1283;111428;-73
2022/05/11 12:27:30;;;;;;;10.30;3.90;;;;;;;26.72;27.15;98891.90;105352;1284;97938;-73